Time;durP1;ratioP1;P1;durP2;ratioP2;P2;SDS_P1;SDS_P2;PMS_P1;PMS_P2;Temp;Humidity;BMP_temperature;BMP_pressure;BME280_temperature;BME280_humidity;BME280_pressure;Samples;Min_cycle;Max_cycle;Signal;HPM_P1;HPM_P2
2021/09/01 00:00:00;;;;;;;17.92;4.15;;;17.10;87.90;;;;;;6190202;23;20028;-83
2021/09/01 00:02:25;;;;;;;9.35;3.60;;;17.10;87.50;;;;;;6188921;23;20016;-83
2021/09/01 00:04:51;;;;;;;14.02;4.18;;;17.10;88.50;;;;;;6189384;23;20019;-83
2021/09/01 00:07:16;;;;;;;10.82;3.53;;;17.10;87.90;;;;;;6189939;23;20208;-83
2021/09/01 00:09:42;;;;;;;11.93;3.53;;;17.10;88.50;;;;;;6188384;23;20020;-83
2021/09/01 00:12:08;;;;;;;11.48;3.72;;;17.10;88.60;;;;;;6216017;23;20355;-83
2021/09/01 00:14:33;;;;;;;12.68;3.47;;;17.10;89.00;;;;;;6189061;23;20075;-83
2021/09/01 00:17:00;;;;;;;13.88;3.53;;;17.20;89.70;;;;;;6188813;23;20052;-83
2021/09/01 00:19:27;;;;;;;11.02;3.70;;;17.10;90.00;;;;;;6189914;23;20008;-83
2021/09/01 00:21:54;;;;;;;8.57;3.05;;;17.20;90.20;;;;;;6215795;23;20074;-83
2021/09/01 00:24:20;;;;;;;12.43;3.78;;;17.20;90.30;;;;;;6188716;23;20379;-83
2021/09/01 00:26:45;;;;;;;9.13;3.17;;;17.20;90.30;;;;;;6189370;23;20051;-83
2021/09/01 00:29:11;;;;;;;9.82;3.28;;;17.20;90.10;;;;;;6216035;23;20024;-82
2021/09/01 00:31:38;;;;;;;10.90;3.35;;;17.20;90.10;;;;;;6215234;23;20067;-82
2021/09/01 00:34:03;;;;;;;8.55;3.28;;;17.20;90.20;;;;;;6216250;23;20100;-83
2021/09/01 00:36:29;;;;;;;11.30;3.53;;;17.20;90.40;;;;;;6216257;23;20068;-82
2021/09/01 00:38:54;;;;;;;10.63;3.42;;;17.30;90.60;;;;;;6187877;23;20013;-82
2021/09/01 00:41:25;;;;;;;9.15;3.35;;;17.20;90.40;;;;;;6189074;23;20028;-83
2021/09/01 00:43:52;;;;;;;8.90;3.50;;;17.20;90.50;;;;;;6187903;23;20023;-82
2021/09/01 00:46:18;;;;;;;10.50;3.67;;;17.20;90.60;;;;;;6189208;23;20088;-82
2021/09/01 00:48:44;;;;;;;10.50;3.28;;;17.20;90.60;;;;;;6188931;23;20499;-83
2021/09/01 00:51:10;;;;;;;9.88;3.33;;;17.30;90.70;;;;;;6188411;23;20016;-82
2021/09/01 00:53:42;;;;;;;9.85;3.28;;;17.30;90.70;;;;;;6188827;23;20071;-82
2021/09/01 00:56:08;;;;;;;7.53;3.30;;;17.20;90.80;;;;;;6189032;23;20027;-82
2021/09/01 00:58:37;;;;;;;11.48;3.35;;;17.20;90.70;;;;;;6188135;23;20453;-81
2021/09/01 01:03:40;;;;;;;10.57;3.60;;;17.20;90.30;;;;;;6188296;23;20020;-81
2021/09/01 01:06:05;;;;;;;10.15;3.38;;;17.20;90.50;;;;;;6188241;23;20027;-81
2021/09/01 01:08:32;;;;;;;8.82;3.10;;;17.20;90.50;;;;;;6189054;23;20048;-81
2021/09/01 01:10:59;;;;;;;8.43;3.13;;;17.20;90.50;;;;;;6188903;23;20028;-81
2021/09/01 01:13:30;;;;;;;10.77;3.45;;;17.20;90.60;;;;;;6188349;23;20017;-81
2021/09/01 01:15:57;;;;;;;7.78;2.90;;;17.20;90.40;;;;;;6189375;23;20020;-82
2021/09/01 01:18:23;;;;;;;9.90;3.38;;;17.20;90.30;;;;;;6215976;23;20016;-81
2021/09/01 01:20:50;;;;;;;11.80;3.58;;;17.20;90.10;;;;;;6187934;23;20025;-82
2021/09/01 01:23:17;;;;;;;13.25;3.50;;;17.20;90.10;;;;;;6189656;23;20467;-81
2021/09/01 01:25:43;;;;;;;13.57;3.80;;;17.20;90.10;;;;;;6188892;23;20433;-82
2021/09/01 01:28:10;;;;;;;12.43;3.80;;;17.10;89.70;;;;;;6188501;23;20017;-81
2021/09/01 01:30:37;;;;;;;13.25;3.90;;;17.10;90.00;;;;;;6188717;23;20028;-81
2021/09/01 01:33:03;;;;;;;10.52;3.47;;;17.10;89.80;;;;;;6215198;23;20017;-82
2021/09/01 01:35:41;;;;;;;10.45;3.97;;;17.10;90.40;;;;;;6189231;23;20441;-81
2021/09/01 01:38:14;;;;;;;10.32;2.95;;;17.10;89.90;;;;;;6189374;23;20017;-82
2021/09/01 01:40:41;;;;;;;17.80;4.55;;;17.10;90.00;;;;;;6187721;23;20081;-82
2021/09/01 01:43:07;;;;;;;11.80;3.90;;;17.10;89.70;;;;;;6189059;23;20051;-82
2021/09/01 01:45:44;;;;;;;7.38;3.13;;;17.00;89.60;;;;;;6188693;23;20396;-82
2021/09/01 01:48:12;;;;;;;13.48;4.13;;;17.10;90.00;;;;;;6188466;23;20437;-81
2021/09/01 01:50:40;;;;;;;9.10;3.42;;;17.00;90.00;;;;;;6188615;23;20024;-82
2021/09/01 01:53:06;;;;;;;10.13;3.40;;;17.00;90.00;;;;;;6189013;23;20013;-82
2021/09/01 01:55:32;;;;;;;10.50;3.03;;;17.00;90.20;;;;;;6187549;23;20071;-82
2021/09/01 01:57:58;;;;;;;13.30;3.45;;;17.00;90.10;;;;;;6188979;23;20012;-82
2021/09/01 02:00:24;;;;;;;9.40;3.30;;;17.00;89.80;;;;;;6215695;23;20477;-82
2021/09/01 02:02:50;;;;;;;11.05;3.75;;;17.00;90.30;;;;;;6187734;23;20008;-82
2021/09/01 02:05:16;;;;;;;9.57;3.22;;;17.00;90.50;;;;;;6189254;23;20055;-82
2021/09/01 02:07:41;;;;;;;11.18;3.78;;;17.00;90.50;;;;;;6188892;23;20025;-82
2021/09/01 02:10:09;;;;;;;10.82;3.63;;;17.00;90.50;;;;;;6190026;23;20012;-82
2021/09/01 02:12:35;;;;;;;8.68;3.22;;;17.00;90.30;;;;;;6190408;23;20437;-82
2021/09/01 02:15:01;;;;;;;8.15;3.20;;;16.90;90.50;;;;;;6190284;23;20091;-82
2021/09/01 02:17:28;;;;;;;8.45;3.38;;;17.00;90.70;;;;;;6190834;23;20024;-82
2021/09/01 02:19:54;;;;;;;9.82;3.65;;;17.00;90.80;;;;;;6190635;23;20013;-83
2021/09/01 02:22:20;;;;;;;10.70;3.58;;;17.00;90.80;;;;;;6190206;23;20760;-82
2021/09/01 02:24:46;;;;;;;10.27;3.50;;;17.00;90.70;;;;;;6217182;23;20112;-82
2021/09/01 02:27:11;;;;;;;10.15;3.35;;;16.90;90.90;;;;;;6190974;23;20095;-82
2021/09/01 02:29:37;;;;;;;9.85;3.38;;;16.90;90.90;;;;;;6189468;23;20055;-82
2021/09/01 02:32:04;;;;;;;9.18;3.55;;;17.00;90.90;;;;;;6190773;23;20023;-82
2021/09/01 02:34:29;;;;;;;9.10;3.10;;;16.90;90.90;;;;;;6190671;23;20035;-82
2021/09/01 02:36:56;;;;;;;10.35;3.50;;;17.00;91.00;;;;;;6216139;23;20457;-82
2021/09/01 02:39:21;;;;;;;11.02;3.30;;;16.90;90.80;;;;;;6217353;23;20023;-82
2021/09/01 02:41:47;;;;;;;10.63;3.50;;;16.90;90.70;;;;;;6190519;23;20013;-82
2021/09/01 02:44:13;;;;;;;9.07;3.40;;;16.90;90.80;;;;;;6189522;23;20051;-82
2021/09/01 02:46:38;;;;;;;8.20;3.38;;;16.90;90.70;;;;;;6190247;23;20067;-82
2021/09/01 02:49:04;;;;;;;9.00;3.15;;;16.90;90.50;;;;;;6190445;23;20016;-82
2021/09/01 02:51:29;;;;;;;9.57;3.58;;;16.90;90.70;;;;;;6189446;23;20027;-82
2021/09/01 02:53:55;;;;;;;9.68;3.22;;;16.90;90.60;;;;;;6190232;23;20013;-82
2021/09/01 02:56:20;;;;;;;9.82;3.35;;;16.90;90.60;;;;;;6190069;23;20020;-83
2021/09/01 02:58:46;;;;;;;8.65;3.38;;;16.90;90.70;;;;;;6189101;23;20009;-82
2021/09/01 03:01:12;;;;;;;10.30;3.20;;;16.90;90.70;;;;;;6190206;23;20025;-82
2021/09/01 03:03:37;;;;;;;10.98;3.60;;;16.90;90.80;;;;;;6189669;23;20052;-82
2021/09/01 03:06:03;;;;;;;11.07;3.72;;;16.90;90.80;;;;;;6189258;23;20016;-82
2021/09/01 03:08:28;;;;;;;11.85;3.67;;;16.90;90.70;;;;;;6190064;23;20114;-81
2021/09/01 03:10:54;;;;;;;11.48;3.72;;;16.80;90.60;;;;;;6189669;23;20066;-82
2021/09/01 03:13:20;;;;;;;11.88;3.28;;;16.80;90.60;;;;;;6189251;23;20044;-82
2021/09/01 03:15:46;;;;;;;8.68;3.20;;;16.80;90.60;;;;;;6189562;23;20112;-83
2021/09/01 03:18:12;;;;;;;9.02;3.25;;;16.80;90.60;;;;;;6190271;23;20400;-82
2021/09/01 03:20:38;;;;;;;8.57;3.33;;;16.80;90.70;;;;;;6215834;23;20091;-82
2021/09/01 03:23:03;;;;;;;10.07;3.35;;;16.80;90.80;;;;;;6190151;23;20445;-82
2021/09/01 03:25:29;;;;;;;8.00;3.10;;;16.80;90.90;;;;;;6189270;23;20020;-82
2021/09/01 03:27:54;;;;;;;8.73;3.25;;;16.80;91.00;;;;;;6216842;23;20091;-83
2021/09/01 03:30:20;;;;;;;9.18;3.38;;;16.80;91.10;;;;;;6216708;23;20028;-82
2021/09/01 03:32:46;;;;;;;7.85;3.00;;;16.80;91.20;;;;;;6188617;23;20013;-82
2021/09/01 03:35:12;;;;;;;8.82;3.58;;;16.80;91.10;;;;;;6190050;23;20094;-82
2021/09/01 03:37:37;;;;;;;13.05;3.67;;;16.80;91.20;;;;;;6190018;23;20028;-82
2021/09/01 03:40:04;;;;;;;9.23;3.63;;;16.80;91.00;;;;;;6189003;23;20017;-82
2021/09/01 03:42:30;;;;;;;8.73;3.78;;;16.80;91.10;;;;;;6189780;23;20013;-82
2021/09/01 03:44:55;;;;;;;8.27;3.40;;;16.80;91.20;;;;;;6189990;23;20028;-82
2021/09/01 03:47:21;;;;;;;8.23;3.17;;;16.80;91.30;;;;;;6189171;23;20017;-82
2021/09/01 03:49:46;;;;;;;8.27;3.40;;;16.80;91.30;;;;;;6189258;23;20021;-82
2021/09/01 03:52:13;;;;;;;8.18;3.17;;;16.80;91.40;;;;;;6190191;23;20341;-82
2021/09/01 03:54:39;;;;;;;8.18;2.78;;;16.80;91.40;;;;;;6214990;23;20020;-82
2021/09/01 03:57:05;;;;;;;7.30;3.20;;;16.80;91.40;;;;;;6189772;23;20349;-82
2021/09/01 03:59:31;;;;;;;9.93;3.50;;;16.80;91.40;;;;;;6216422;23;20087;-82
2021/09/01 04:01:56;;;;;;;11.10;3.25;;;16.80;91.50;;;;;;6188700;23;20016;-82
2021/09/01 04:04:23;;;;;;;9.57;3.20;;;16.80;91.40;;;;;;6190136;23;20368;-82
2021/09/01 04:06:48;;;;;;;8.95;3.17;;;16.70;91.30;;;;;;6189087;23;20020;-82
2021/09/01 04:09:14;;;;;;;9.15;3.28;;;16.80;91.40;;;;;;6188896;23;20013;-82
2021/09/01 04:11:40;;;;;;;6.85;2.80;;;16.80;91.40;;;;;;6189291;23;20027;-82
2021/09/01 04:14:05;;;;;;;9.95;3.20;;;16.70;91.30;;;;;;6189281;23;20013;-82
2021/09/01 04:16:31;;;;;;;10.70;3.30;;;16.70;91.20;;;;;;6214916;23;20044;-82
2021/09/01 04:18:56;;;;;;;8.82;3.08;;;16.70;91.10;;;;;;6189937;23;20020;-83
2021/09/01 04:21:22;;;;;;;10.00;3.03;;;16.70;91.10;;;;;;6189331;23;20099;-82
2021/09/01 04:23:48;;;;;;;9.88;3.25;;;16.70;91.10;;;;;;6188370;23;20021;-83
2021/09/01 04:26:13;;;;;;;6.93;2.80;;;16.70;91.10;;;;;;6189189;23;20067;-82
2021/09/01 04:28:39;;;;;;;8.40;2.92;;;16.70;91.10;;;;;;6188775;23;20023;-82
2021/09/01 04:31:04;;;;;;;8.70;3.25;;;16.70;91.00;;;;;;6188962;23;20024;-83
2021/09/01 04:33:31;;;;;;;7.82;2.97;;;16.70;91.10;;;;;;6189066;23;20016;-82
2021/09/01 04:35:56;;;;;;;10.00;2.92;;;16.70;91.00;;;;;;6187957;23;20017;-82
2021/09/01 04:38:22;;;;;;;8.48;2.90;;;16.70;90.90;;;;;;6216480;23;20390;-82
2021/09/01 04:40:48;;;;;;;7.68;3.03;;;16.70;90.90;;;;;;6189328;23;20029;-82
2021/09/01 04:43:13;;;;;;;9.90;3.38;;;16.70;90.70;;;;;;6188894;23;20013;-82
2021/09/01 04:45:39;;;;;;;7.15;3.00;;;16.70;90.80;;;;;;6189031;23;20158;-82
2021/09/01 04:48:04;;;;;;;11.95;3.40;;;16.60;90.70;;;;;;6189556;23;20020;-82
2021/09/01 04:50:30;;;;;;;9.63;3.15;;;16.70;90.60;;;;;;6188730;23;20449;-82
2021/09/01 04:52:55;;;;;;;8.80;3.22;;;16.60;90.70;;;;;;6189495;23;20017;-82
2021/09/01 04:55:21;;;;;;;8.52;3.10;;;16.60;90.90;;;;;;6189194;23;20017;-82
2021/09/01 04:57:48;;;;;;;8.55;2.70;;;16.60;91.00;;;;;;6188154;23;20024;-83
2021/09/01 05:00:14;;;;;;;8.70;3.15;;;16.60;91.10;;;;;;6189067;23;20028;-82
2021/09/01 05:02:39;;;;;;;8.55;3.13;;;16.60;91.20;;;;;;6188816;23;20017;-82
2021/09/01 05:05:06;;;;;;;9.57;3.45;;;16.60;91.10;;;;;;6188187;23;20040;-82
2021/09/01 05:07:32;;;;;;;8.48;3.15;;;16.60;91.60;;;;;;6188733;23;20091;-82
2021/09/01 05:09:57;;;;;;;7.80;2.97;;;16.60;91.20;;;;;;6215768;23;20491;-82
2021/09/01 05:12:27;;;;;;;7.72;3.17;;;16.60;91.20;;;;;;6214301;23;20456;-82
2021/09/01 05:14:56;;;;;;;8.85;3.20;;;16.60;91.30;;;;;;6215185;23;20020;-82
2021/09/01 05:17:22;;;;;;;8.18;3.00;;;16.60;91.30;;;;;;6214768;23;20020;-82
2021/09/01 05:19:48;;;;;;;7.03;3.03;;;16.60;91.30;;;;;;6214666;23;20032;-82
2021/09/01 05:22:17;;;;;;;6.47;2.78;;;16.60;91.40;;;;;;6189195;23;20380;-82
2021/09/01 05:25:05;;;;;;;7.43;2.80;;;16.60;91.30;;;;;;6188687;23;20063;-82
2021/09/01 05:27:36;;;;;;;9.65;3.10;;;16.50;91.20;;;;;;6188721;23;20027;-82
2021/09/01 05:30:05;;;;;;;7.80;3.03;;;16.60;91.30;;;;;;6188916;23;20016;-82
2021/09/01 05:32:31;;;;;;;7.60;3.00;;;16.60;91.40;;;;;;6188161;23;20063;-84
2021/09/01 05:34:58;;;;;;;8.27;3.22;;;16.60;91.30;;;;;;6188842;23;20024;-83
2021/09/01 05:37:25;;;;;;;13.32;3.40;;;16.60;91.40;;;;;;6189245;23;20021;-91
2021/09/01 05:39:52;;;;;;;7.82;3.20;;;16.60;91.20;;;;;;6190690;23;20027;-93
2021/09/01 05:42:21;;;;;;;8.05;2.92;;;16.60;91.20;;;;;;6190279;23;20071;-91
2021/09/01 05:44:47;;;;;;;8.35;3.10;;;16.60;91.10;;;;;;6192394;23;20019;-92
2021/09/01 05:47:15;;;;;;;8.82;3.58;;;16.60;91.00;;;;;;6192100;23;20051;-83
2021/09/01 05:49:43;;;;;;;7.78;2.63;;;16.60;91.10;;;;;;6190212;23;20016;-81
2021/09/01 05:52:09;;;;;;;7.72;2.80;;;16.60;91.10;;;;;;6190837;23;20032;-82
2021/09/01 05:54:38;;;;;;;5.95;2.70;;;16.60;90.90;;;;;;6188887;23;20492;-82
2021/09/01 05:57:09;;;;;;;6.88;2.90;;;16.60;91.00;;;;;;6190368;23;20071;-82
2021/09/01 05:59:55;;;;;;;8.23;2.80;;;16.60;90.90;;;;;;6190415;23;20422;-81
2021/09/01 06:02:25;;;;;;;9.63;3.15;;;16.50;90.60;;;;;;6181525;23;20031;-82
2021/09/01 06:04:54;;;;;;;8.10;3.00;;;16.50;90.70;;;;;;6190155;23;20027;-81
2021/09/01 06:07:20;;;;;;;9.50;2.92;;;16.50;90.80;;;;;;6188780;23;20503;-82
2021/09/01 06:09:46;;;;;;;7.07;2.80;;;16.50;90.80;;;;;;6190035;23;20063;-81
2021/09/01 06:12:15;;;;;;;7.63;2.90;;;16.50;90.80;;;;;;6190860;23;20095;-81
2021/09/01 06:14:41;;;;;;;11.02;3.17;;;16.50;90.70;;;;;;6189481;23;20017;-83
2021/09/01 06:17:06;;;;;;;8.70;3.08;;;16.60;90.80;;;;;;6190470;23;20040;-81
2021/09/01 06:19:32;;;;;;;7.65;3.08;;;16.60;90.70;;;;;;6190320;23;20012;-81
2021/09/01 06:21:58;;;;;;;9.77;3.20;;;16.60;90.80;;;;;;6189255;23;20404;-82
2021/09/01 06:24:24;;;;;;;8.95;3.03;;;16.60;91.10;;;;;;6190253;23;20326;-82
2021/09/01 06:26:50;;;;;;;8.57;3.05;;;16.60;91.10;;;;;;6189733;23;20043;-82
2021/09/01 06:29:15;;;;;;;6.47;2.90;;;16.60;91.20;;;;;;6189106;23;20012;-81
2021/09/01 06:31:41;;;;;;;8.27;3.10;;;16.60;91.10;;;;;;6190047;23;20044;-82
2021/09/01 06:34:07;;;;;;;8.02;3.40;;;16.60;91.10;;;;;;6189838;23;20021;-82
2021/09/01 06:36:32;;;;;;;11.43;3.22;;;16.60;91.10;;;;;;6188781;23;20056;-82
2021/09/01 06:38:58;;;;;;;9.40;3.00;;;16.60;91.00;;;;;;6190035;23;20099;-81
2021/09/01 06:41:23;;;;;;;12.07;3.75;;;16.70;91.10;;;;;;6190110;23;20051;-83
2021/09/01 06:43:49;;;;;;;9.18;2.97;;;16.60;91.10;;;;;;6189243;23;20020;-84
2021/09/01 06:46:14;;;;;;;8.43;2.88;;;16.70;91.10;;;;;;6190379;23;20066;-82
2021/09/01 06:48:40;;;;;;;11.73;3.80;;;16.60;91.10;;;;;;6189615;23;20053;-82
2021/09/01 06:51:05;;;;;;;7.53;3.08;;;16.70;91.10;;;;;;6189056;23;20468;-82
2021/09/01 06:53:31;;;;;;;13.75;3.97;;;16.70;91.20;;;;;;6189320;23;20345;-81
2021/09/01 06:55:56;;;;;;;12.18;3.90;;;16.70;91.20;;;;;;6190056;23;20017;-81
2021/09/01 06:58:22;;;;;;;10.15;3.47;;;16.70;91.10;;;;;;6189154;23;20078;-81
2021/09/01 07:00:48;;;;;;;8.82;3.03;;;16.70;91.00;;;;;;6189821;23;20107;-81
2021/09/01 07:03:13;;;;;;;8.95;3.38;;;16.70;90.90;;;;;;6190008;23;20017;-81
2021/09/01 07:05:39;;;;;;;14.23;3.70;;;16.70;90.90;;;;;;6189269;23;20012;-81
2021/09/01 07:08:12;;;;;;;9.85;3.30;;;16.70;90.90;;;;;;6190022;23;20048;-82
2021/09/01 07:10:38;;;;;;;14.10;4.05;;;16.70;90.90;;;;;;6188253;23;20029;-82
2021/09/01 07:13:03;;;;;;;17.20;4.22;;;16.70;90.90;;;;;;6188414;23;20059;-81
2021/09/01 07:15:29;;;;;;;16.98;4.13;;;16.70;90.80;;;;;;6190107;23;20017;-81
2021/09/01 07:17:54;;;;;;;14.95;4.05;;;16.70;90.80;;;;;;6188541;23;20012;-82
2021/09/01 07:20:21;;;;;;;10.63;3.38;;;16.70;90.80;;;;;;6190089;23;20095;-82
2021/09/01 07:22:47;;;;;;;11.05;4.03;;;16.80;91.00;;;;;;6189496;23;20017;-82
2021/09/01 07:25:12;;;;;;;11.50;3.63;;;16.80;91.00;;;;;;6188639;23;20012;-81
2021/09/01 07:27:38;;;;;;;15.57;4.15;;;16.80;90.90;;;;;;6189502;23;20022;-81
2021/09/01 07:30:05;;;;;;;14.20;4.10;;;16.80;91.00;;;;;;6189811;23;20100;-81
2021/09/01 07:32:30;;;;;;;12.95;4.05;;;16.80;91.00;;;;;;6188860;23;20009;-81
2021/09/01 07:34:56;;;;;;;13.82;4.53;;;16.80;91.00;;;;;;6189823;23;20380;-82
2021/09/01 07:37:21;;;;;;;14.50;4.50;;;16.80;90.90;;;;;;6216200;23;20318;-81
2021/09/01 07:39:47;;;;;;;12.40;3.85;;;16.80;90.90;;;;;;6215445;23;20009;-82
2021/09/01 07:42:13;;;;;;;10.38;3.63;;;16.80;90.90;;;;;;6189247;23;20023;-81
2021/09/01 07:44:38;;;;;;;15.23;4.20;;;16.80;90.90;;;;;;6189444;23;20021;-81
2021/09/01 07:47:04;;;;;;;13.90;4.38;;;16.90;91.00;;;;;;6188686;23;20389;-81
2021/09/01 07:49:30;;;;;;;8.15;3.00;;;16.90;91.00;;;;;;6189314;23;20005;-81
2021/09/01 07:51:55;;;;;;;15.75;4.50;;;16.90;91.00;;;;;;6189602;23;20028;-81
2021/09/01 07:54:21;;;;;;;16.70;4.28;;;16.90;91.00;;;;;;6189163;23;20017;-81
2021/09/01 07:56:47;;;;;;;11.93;4.15;;;16.90;91.10;;;;;;6188762;23;20775;-82
2021/09/01 07:59:12;;;;;;;20.20;4.72;;;16.90;91.10;;;;;;6189446;23;20047;-81
2021/09/01 08:01:38;;;;;;;15.70;4.45;;;17.00;91.00;;;;;;6188510;23;20083;-82
2021/09/01 08:04:04;;;;;;;23.55;5.68;;;17.00;91.30;;;;;;6189149;23;20044;-81
2021/09/01 08:06:30;;;;;;;19.60;4.93;;;17.00;90.90;;;;;;6215978;23;20028;-80
2021/09/01 08:08:55;;;;;;;17.42;4.53;;;17.00;90.90;;;;;;6188742;23;20021;-81
2021/09/01 08:11:21;;;;;;;15.32;4.32;;;17.10;90.90;;;;;;6216205;23;20017;-81
2021/09/01 08:13:46;;;;;;;17.45;4.32;;;17.10;90.80;;;;;;6188739;23;20029;-80
2021/09/01 08:16:12;;;;;;;14.63;4.22;;;17.10;90.80;;;;;;6189263;23;20043;-82
2021/09/01 08:18:38;;;;;;;14.52;4.43;;;17.10;90.70;;;;;;6189375;23;20092;-81
2021/09/01 08:21:03;;;;;;;16.67;4.40;;;17.10;90.60;;;;;;6188871;23;20016;-81
2021/09/01 08:23:29;;;;;;;13.80;4.40;;;17.20;90.60;;;;;;6189731;23;20024;-81
2021/09/01 08:25:54;;;;;;;12.45;4.10;;;17.20;90.60;;;;;;6216155;23;20441;-81
2021/09/01 08:28:20;;;;;;;18.20;4.85;;;17.20;90.60;;;;;;6188678;23;20388;-81
2021/09/01 08:30:45;;;;;;;14.32;4.57;;;17.30;90.50;;;;;;6215671;23;20024;-81
2021/09/01 08:33:11;;;;;;;11.63;4.13;;;17.30;90.40;;;;;;6189595;23;20013;-81
2021/09/01 08:35:36;;;;;;;12.82;4.20;;;17.30;90.30;;;;;;6214950;23;20361;-81
2021/09/01 08:38:03;;;;;;;14.40;4.13;;;17.30;90.10;;;;;;6216499;23;20017;-81
2021/09/01 08:40:29;;;;;;;14.57;4.47;;;17.40;90.10;;;;;;6216151;23;20067;-81
2021/09/01 08:42:55;;;;;;;16.02;3.95;;;17.40;90.00;;;;;;6215157;23;20020;-81
2021/09/01 08:45:21;;;;;;;13.85;3.85;;;17.40;90.10;;;;;;6189340;23;20013;-81
2021/09/01 08:47:47;;;;;;;14.60;3.70;;;17.40;90.10;;;;;;6215605;23;20023;-81
2021/09/01 08:50:13;;;;;;;17.65;4.30;;;17.50;90.00;;;;;;6215073;23;20017;-81
2021/09/01 08:52:39;;;;;;;15.85;3.83;;;17.50;89.40;;;;;;6188046;23;20016;-81
2021/09/01 08:55:08;;;;;;;17.65;4.43;;;17.60;89.40;;;;;;6188532;23;20023;-81
2021/09/01 08:57:34;;;;;;;15.15;3.60;;;17.60;88.50;;;;;;6188153;23;20056;-81
2021/09/01 09:00:00;;;;;;;15.77;4.10;;;17.60;88.40;;;;;;6188654;23;20095;-81
2021/09/01 09:02:27;;;;;;;12.70;3.60;;;17.60;87.90;;;;;;6215208;23;20399;-81
2021/09/01 09:04:53;;;;;;;14.98;3.47;;;17.60;88.60;;;;;;6187529;23;20035;-81
2021/09/01 09:07:18;;;;;;;11.32;3.80;;;17.70;88.10;;;;;;6188865;23;20068;-81
2021/09/01 09:09:44;;;;;;;13.43;4.15;;;17.70;88.20;;;;;;6188270;23;20032;-81
2021/09/01 09:12:10;;;;;;;14.70;3.92;;;17.70;88.10;;;;;;6187751;23;20072;-82
2021/09/01 09:14:38;;;;;;;14.43;4.18;;;17.80;87.60;;;;;;6185648;23;20039;-81
2021/09/01 09:17:18;;;;;;;14.35;3.92;;;17.80;87.40;;;;;;6214798;23;20044;-82
2021/09/01 09:20:04;;;;;;;14.20;4.30;;;17.80;87.00;;;;;;6188937;23;20052;-82
2021/09/01 09:22:33;;;;;;;16.63;3.92;;;17.80;87.10;;;;;;6215087;23;20070;-82
2021/09/01 09:25:12;;;;;;;14.52;3.80;;;17.80;87.30;;;;;;6214680;23;20461;-82
2021/09/01 09:27:49;;;;;;;14.45;4.07;;;17.90;87.20;;;;;;6188626;23;20096;-81
2021/09/01 09:30:21;;;;;;;14.00;3.83;;;17.90;86.50;;;;;;6188718;23;20016;-82
2021/09/01 09:32:59;;;;;;;12.80;4.10;;;18.00;86.30;;;;;;6187515;23;20021;-82
2021/09/01 09:35:27;;;;;;;17.83;4.20;;;17.90;86.90;;;;;;6188948;23;20028;-82
2021/09/01 09:38:01;;;;;;;14.25;4.10;;;18.00;86.90;;;;;;6188305;23;20017;-81
2021/09/01 09:40:28;;;;;;;21.73;4.00;;;18.00;85.90;;;;;;6187891;23;20021;-81
2021/09/01 09:42:54;;;;;;;13.40;3.70;;;18.10;86.60;;;;;;6187986;23;20013;-81
2021/09/01 09:45:26;;;;;;;16.80;3.95;;;18.10;86.50;;;;;;6187897;23;20075;-82
2021/09/01 09:47:56;;;;;;;12.23;3.92;;;18.10;86.50;;;;;;6188230;23;20012;-82
2021/09/01 09:50:22;;;;;;;14.95;3.67;;;18.20;86.10;;;;;;6189180;23;20615;-82
2021/09/01 09:52:49;;;;;;;15.75;3.95;;;18.20;85.90;;;;;;6187402;23;20009;-82
2021/09/01 09:55:18;;;;;;;14.38;3.85;;;18.20;84.90;;;;;;6188576;23;20136;-81
2021/09/01 09:58:02;;;;;;;14.90;3.58;;;18.30;83.90;;;;;;6188548;23;20042;-81
2021/09/01 10:00:29;;;;;;;15.32;3.90;;;18.30;83.30;;;;;;6187742;23;20023;-82
2021/09/01 10:02:55;;;;;;;14.10;3.60;;;18.30;83.80;;;;;;6188087;23;20009;-82
2021/09/01 10:05:23;;;;;;;14.43;3.97;;;18.30;84.40;;;;;;6189103;23;20017;-82
2021/09/01 10:07:49;;;;;;;14.60;4.00;;;18.40;84.20;;;;;;6187603;23;20017;-82
2021/09/01 10:10:15;;;;;;;10.27;3.30;;;18.30;84.20;;;;;;6188521;23;20441;-82
2021/09/01 10:12:43;;;;;;;14.75;3.83;;;18.40;85.00;;;;;;6188896;23;20338;-82
2021/09/01 10:15:13;;;;;;;14.90;4.22;;;18.40;84.70;;;;;;6187877;23;20020;-83
2021/09/01 10:17:44;;;;;;;13.68;4.00;;;18.50;84.10;;;;;;6188152;23;20023;-81
2021/09/01 10:20:15;;;;;;;15.65;3.90;;;18.50;83.20;;;;;;6188726;23;20016;-81
2021/09/01 10:22:56;;;;;;;12.60;3.80;;;18.50;82.60;;;;;;6188002;23;20087;-81
2021/09/01 10:25:39;;;;;;;14.85;4.25;;;18.50;82.00;;;;;;6188928;23;20079;-80
2021/09/01 10:28:20;;;;;;;12.18;4.07;;;18.50;82.30;;;;;;6188055;23;20025;-81
2021/09/01 10:31:18;;;;;;;12.55;4.00;;;18.50;83.20;;;;;;6189966;23;20445;-80
2021/09/01 10:34:02;;;;;;;12.15;3.90;;;18.60;83.30;;;;;;6189746;23;20122;-80
2021/09/01 10:36:28;;;;;;;11.00;3.60;;;18.60;83.70;;;;;;6189596;23;20024;-79
2021/09/01 10:39:06;;;;;;;14.40;3.92;;;18.60;84.20;;;;;;6190030;23;20307;-80
2021/09/01 10:41:33;;;;;;;13.25;4.00;;;18.70;83.50;;;;;;6188250;23;20206;-81
2021/09/01 10:44:11;;;;;;;14.98;3.65;;;18.70;84.10;;;;;;6190621;23;20024;-81
2021/09/01 10:47:03;;;;;;;15.18;3.95;;;18.70;84.50;;;;;;6190313;23;20016;-81
2021/09/01 10:49:54;;;;;;;12.15;3.72;;;18.70;83.50;;;;;;6184713;23;20020;-81
2021/09/01 10:52:21;;;;;;;12.50;3.78;;;18.60;83.50;;;;;;6190434;23;20052;-81
2021/09/01 10:54:49;;;;;;;14.60;3.55;;;18.60;83.60;;;;;;6190136;23;20044;-80
2021/09/01 10:57:28;;;;;;;13.40;3.45;;;18.60;84.00;;;;;;6189177;23;20120;-80
2021/09/01 10:59:58;;;;;;;13.48;3.45;;;18.60;84.10;;;;;;6190214;23;20103;-79
2021/09/01 11:02:24;;;;;;;16.77;3.60;;;18.60;83.80;;;;;;6189934;23;20068;-79
2021/09/01 11:04:58;;;;;;;12.48;3.50;;;18.60;83.70;;;;;;6216012;23;20027;-80
2021/09/01 11:07:26;;;;;;;11.15;3.40;;;18.60;84.60;;;;;;6188890;23;20040;-79
2021/09/01 11:10:03;;;;;;;17.02;3.60;;;18.60;84.70;;;;;;6188606;23;20586;-80
2021/09/01 11:12:31;;;;;;;12.98;3.50;;;18.60;84.10;;;;;;6189229;23;20028;-80
2021/09/01 11:14:57;;;;;;;15.20;4.05;;;18.60;85.00;;;;;;6215543;23;20017;-81
2021/09/01 11:17:28;;;;;;;14.23;4.00;;;18.70;84.90;;;;;;6188725;23;20027;-80
2021/09/01 11:20:00;;;;;;;13.50;4.05;;;18.70;84.50;;;;;;6189607;23;20015;-80
2021/09/01 11:22:29;;;;;;;12.45;3.83;;;18.70;83.80;;;;;;6190424;23;20017;-80
2021/09/01 11:25:05;;;;;;;14.35;3.60;;;18.70;83.90;;;;;;6188667;23;20091;-81
2021/09/01 11:27:32;;;;;;;14.07;3.72;;;18.70;84.40;;;;;;6190165;23;20091;-81
2021/09/01 11:30:04;;;;;;;14.45;3.55;;;18.80;85.20;;;;;;6217733;23;20091;-92
2021/09/01 11:32:31;;;;;;;11.57;3.70;;;18.70;85.00;;;;;;6192435;23;20016;-91
2021/09/01 11:34:59;;;;;;;14.27;3.47;;;18.80;85.50;;;;;;6191853;23;20047;-94
2021/09/01 11:37:25;;;;;;;12.82;3.72;;;18.80;84.30;;;;;;6193178;23;20066;-93
2021/09/01 11:39:52;;;;;;;13.48;3.40;;;18.90;84.20;;;;;;6192978;23;20024;-91
2021/09/01 11:42:18;;;;;;;12.18;3.38;;;18.90;83.90;;;;;;6195015;23;20016;-95
2021/09/01 11:44:54;;;;;;;9.48;3.00;;;18.90;83.90;;;;;;6196585;23;20092;-90
2021/09/01 11:47:19;;;;;;;12.05;3.03;;;18.90;83.80;;;;;;6193069;23;20061;-92
2021/09/01 11:49:45;;;;;;;11.43;2.80;;;19.00;83.40;;;;;;6193916;23;20377;-94
2021/09/01 11:52:10;;;;;;;10.88;3.03;;;19.00;82.80;;;;;;6191552;23;20075;-94
2021/09/01 11:54:41;;;;;;;9.73;3.03;;;19.00;83.90;;;;;;6189926;23;20079;-92
2021/09/01 11:57:23;;;;;;;9.25;3.17;;;19.10;84.30;;;;;;6189837;23;20075;-90
2021/09/01 11:59:48;;;;;;;11.88;2.85;;;19.10;83.50;;;;;;6215992;23;20012;-92
2021/09/01 12:02:22;;;;;;;14.02;3.47;;;19.10;82.70;;;;;;6190268;23;20090;-91
2021/09/01 12:04:51;;;;;;;11.15;3.22;;;19.10;81.60;;;;;;6190074;23;20031;-92
2021/09/01 12:07:28;;;;;;;7.80;2.60;;;19.10;80.70;;;;;;6189513;23;20081;-92
2021/09/01 12:10:12;;;;;;;10.93;3.17;;;19.10;82.20;;;;;;6189918;23;20012;-91
2021/09/01 12:12:40;;;;;;;12.15;3.28;;;19.10;83.80;;;;;;6217310;23;20366;-91
2021/09/01 12:15:17;;;;;;;20.92;3.83;;;19.10;83.50;;;;;;6189141;23;20109;-91
2021/09/01 12:18:02;;;;;;;13.02;3.38;;;19.20;82.70;;;;;;6188971;23;20087;-91
2021/09/01 12:20:28;;;;;;;9.85;2.90;;;19.10;82.80;;;;;;6188311;23;20597;-90
2021/09/01 12:22:54;;;;;;;16.52;3.30;;;19.20;83.60;;;;;;6190201;23;20013;-92
2021/09/01 12:25:22;;;;;;;12.95;3.10;;;19.20;82.70;;;;;;6189931;23;20016;-91
2021/09/01 12:27:58;;;;;;;14.25;3.55;;;19.20;82.40;;;;;;6188753;23;20020;-91
2021/09/01 12:30:26;;;;;;;11.38;3.50;;;19.10;83.60;;;;;;6214880;23;20123;-93
2021/09/01 12:33:04;;;;;;;9.98;3.40;;;19.20;82.70;;;;;;6189253;23;20020;-92
2021/09/01 12:35:33;;;;;;;8.70;2.80;;;19.10;82.60;;;;;;6188092;23;20020;-92
2021/09/01 12:38:00;;;;;;;12.23;3.30;;;19.10;84.20;;;;;;6189301;23;20016;-92
2021/09/01 12:40:37;;;;;;;10.15;2.85;;;19.20;83.30;;;;;;6189162;23;20013;-92
2021/09/01 12:43:07;;;;;;;9.68;3.28;;;19.20;83.90;;;;;;6188519;23;20017;-92
2021/09/01 12:45:33;;;;;;;10.02;2.90;;;19.20;83.10;;;;;;6189248;23;20340;-92